sensor_id;sensor_type;location;lat;lon;timestamp;P1;durP1;ratioP1;P2;durP2;ratioP2
64061;SDS011;50308;47.438;-1.528;2023-12-29T00:01:30;10.68;;;5.90;;
64061;SDS011;50308;47.438;-1.528;2023-12-29T00:03:56;10.38;;;4.18;;
64061;SDS011;50308;47.438;-1.528;2023-12-29T00:06:21;7.28;;;3.78;;
64061;SDS011;50308;47.438;-1.528;2023-12-29T00:08:47;9.35;;;4.15;;
64061;SDS011;50308;47.438;-1.528;2023-12-29T00:11:19;7.07;;;4.30;;
64061;SDS011;50308;47.438;-1.528;2023-12-29T00:13:45;8.75;;;4.43;;
64061;SDS011;50308;47.438;-1.528;2023-12-29T00:16:12;12.57;;;6.78;;
64061;SDS011;50308;47.438;-1.528;2023-12-29T00:18:37;9.35;;;4.38;;
64061;SDS011;50308;47.438;-1.528;2023-12-29T00:21:04;7.18;;;3.67;;
64061;SDS011;50308;47.438;-1.528;2023-12-29T00:23:30;7.13;;;3.60;;
64061;SDS011;50308;47.438;-1.528;2023-12-29T00:25:56;8.73;;;3.92;;
64061;SDS011;50308;47.438;-1.528;2023-12-29T00:28:21;6.82;;;3.90;;
64061;SDS011;50308;47.438;-1.528;2023-12-29T00:30:47;8.23;;;4.20;;
64061;SDS011;50308;47.438;-1.528;2023-12-29T00:33:13;8.90;;;3.58;;
64061;SDS011;50308;47.438;-1.528;2023-12-29T00:35:38;10.55;;;4.00;;
64061;SDS011;50308;47.438;-1.528;2023-12-29T00:38:05;6.07;;;2.95;;
64061;SDS011;50308;47.438;-1.528;2023-12-29T00:40:31;7.97;;;2.75;;
64061;SDS011;50308;47.438;-1.528;2023-12-29T00:42:57;5.82;;;2.70;;
64061;SDS011;50308;47.438;-1.528;2023-12-29T00:45:24;8.73;;;3.50;;
64061;SDS011;50308;47.438;-1.528;2023-12-29T00:47:50;8.10;;;2.80;;
64061;SDS011;50308;47.438;-1.528;2023-12-29T00:50:16;7.03;;;2.75;;
64061;SDS011;50308;47.438;-1.528;2023-12-29T00:52:42;5.05;;;2.70;;
64061;SDS011;50308;47.438;-1.528;2023-12-29T00:55:08;9.95;;;2.75;;
64061;SDS011;50308;47.438;-1.528;2023-12-29T00:57:34;6.13;;;2.40;;
64061;SDS011;50308;47.438;-1.528;2023-12-29T00:59:59;7.43;;;2.47;;
64061;SDS011;50308;47.438;-1.528;2023-12-29T01:02:26;8.43;;;2.28;;
64061;SDS011;50308;47.438;-1.528;2023-12-29T01:04:51;9.23;;;2.40;;
64061;SDS011;50308;47.438;-1.528;2023-12-29T01:07:17;4.53;;;2.40;;
64061;SDS011;50308;47.438;-1.528;2023-12-29T01:09:43;9.27;;;2.33;;
64061;SDS011;50308;47.438;-1.528;2023-12-29T01:12:08;12.40;;;2.90;;
64061;SDS011;50308;47.438;-1.528;2023-12-29T01:14:34;10.70;;;2.33;;
64061;SDS011;50308;47.438;-1.528;2023-12-29T01:17:00;9.15;;;2.88;;
64061;SDS011;50308;47.438;-1.528;2023-12-29T01:19:26;7.50;;;2.40;;
64061;SDS011;50308;47.438;-1.528;2023-12-29T01:21:51;7.18;;;2.17;;
64061;SDS011;50308;47.438;-1.528;2023-12-29T01:24:17;8.00;;;2.90;;
64061;SDS011;50308;47.438;-1.528;2023-12-29T01:26:43;8.18;;;2.53;;
64061;SDS011;50308;47.438;-1.528;2023-12-29T01:29:08;9.07;;;3.53;;
64061;SDS011;50308;47.438;-1.528;2023-12-29T01:31:34;7.38;;;2.65;;
64061;SDS011;50308;47.438;-1.528;2023-12-29T01:34:00;6.47;;;2.60;;
64061;SDS011;50308;47.438;-1.528;2023-12-29T01:36:25;8.70;;;2.70;;
64061;SDS011;50308;47.438;-1.528;2023-12-29T01:38:51;7.18;;;2.80;;
64061;SDS011;50308;47.438;-1.528;2023-12-29T01:41:19;8.05;;;2.15;;
64061;SDS011;50308;47.438;-1.528;2023-12-29T01:46:26;5.28;;;2.42;;
64061;SDS011;50308;47.438;-1.528;2023-12-29T01:48:56;8.75;;;2.80;;
64061;SDS011;50308;47.438;-1.528;2023-12-29T01:51:24;5.45;;;2.42;;
64061;SDS011;50308;47.438;-1.528;2023-12-29T01:53:52;9.35;;;2.40;;
64061;SDS011;50308;47.438;-1.528;2023-12-29T01:56:19;8.82;;;2.42;;
64061;SDS011;50308;47.438;-1.528;2023-12-29T01:58:45;6.97;;;2.10;;
64061;SDS011;50308;47.438;-1.528;2023-12-29T02:01:16;9.98;;;2.63;;
64061;SDS011;50308;47.438;-1.528;2023-12-29T02:03:44;7.68;;;2.38;;
64061;SDS011;50308;47.438;-1.528;2023-12-29T02:06:10;8.02;;;1.70;;
64061;SDS011;50308;47.438;-1.528;2023-12-29T02:08:37;6.13;;;2.33;;
64061;SDS011;50308;47.438;-1.528;2023-12-29T02:11:04;7.90;;;1.85;;
64061;SDS011;50308;47.438;-1.528;2023-12-29T02:13:29;6.18;;;1.52;;
64061;SDS011;50308;47.438;-1.528;2023-12-29T02:15:56;3.70;;;1.52;;
64061;SDS011;50308;47.438;-1.528;2023-12-29T02:18:27;7.15;;;1.67;;
64061;SDS011;50308;47.438;-1.528;2023-12-29T02:20:58;7.57;;;2.10;;
64061;SDS011;50308;47.438;-1.528;2023-12-29T02:23:23;8.38;;;1.73;;
64061;SDS011;50308;47.438;-1.528;2023-12-29T02:25:49;6.18;;;1.92;;
64061;SDS011;50308;47.438;-1.528;2023-12-29T02:28:23;8.35;;;1.77;;
64061;SDS011;50308;47.438;-1.528;2023-12-29T02:31:00;5.82;;;1.67;;
64061;SDS011;50308;47.438;-1.528;2023-12-29T02:33:33;7.55;;;1.40;;
64061;SDS011;50308;47.438;-1.528;2023-12-29T02:36:02;3.25;;;1.42;;
64061;SDS011;50308;47.438;-1.528;2023-12-29T02:38:30;5.78;;;1.73;;
64061;SDS011;50308;47.438;-1.528;2023-12-29T02:40:56;5.85;;;1.33;;
64061;SDS011;50308;47.438;-1.528;2023-12-29T02:43:22;7.28;;;2.28;;
64061;SDS011;50308;47.438;-1.528;2023-12-29T02:45:47;10.13;;;1.70;;
64061;SDS011;50308;47.438;-1.528;2023-12-29T02:48:13;6.90;;;1.52;;
64061;SDS011;50308;47.438;-1.528;2023-12-29T02:50:39;4.85;;;1.60;;
64061;SDS011;50308;47.438;-1.528;2023-12-29T02:53:05;6.47;;;1.70;;
64061;SDS011;50308;47.438;-1.528;2023-12-29T02:55:30;4.82;;;1.20;;
64061;SDS011;50308;47.438;-1.528;2023-12-29T02:57:56;5.30;;;2.17;;
64061;SDS011;50308;47.438;-1.528;2023-12-29T03:00:22;7.20;;;1.40;;
64061;SDS011;50308;47.438;-1.528;2023-12-29T03:02:47;6.45;;;1.60;;
64061;SDS011;50308;47.438;-1.528;2023-12-29T03:05:13;3.13;;;1.20;;
64061;SDS011;50308;47.438;-1.528;2023-12-29T03:07:40;7.53;;;1.15;;
64061;SDS011;50308;47.438;-1.528;2023-12-29T03:10:06;5.93;;;2.05;;
64061;SDS011;50308;47.438;-1.528;2023-12-29T03:12:32;7.07;;;1.60;;
64061;SDS011;50308;47.438;-1.528;2023-12-29T03:14:58;7.45;;;1.95;;
64061;SDS011;50308;47.438;-1.528;2023-12-29T03:17:24;5.75;;;1.58;;
64061;SDS011;50308;47.438;-1.528;2023-12-29T03:19:50;3.67;;;1.10;;
64061;SDS011;50308;47.438;-1.528;2023-12-29T03:22:15;6.43;;;1.40;;
64061;SDS011;50308;47.438;-1.528;2023-12-29T03:24:41;7.05;;;1.63;;
64061;SDS011;50308;47.438;-1.528;2023-12-29T03:27:10;5.53;;;1.75;;
64061;SDS011;50308;47.438;-1.528;2023-12-29T03:29:36;7.68;;;1.55;;
64061;SDS011;50308;47.438;-1.528;2023-12-29T03:32:01;3.88;;;1.58;;
64061;SDS011;50308;47.438;-1.528;2023-12-29T03:34:28;6.25;;;1.77;;
64061;SDS011;50308;47.438;-1.528;2023-12-29T03:36:53;8.65;;;1.50;;
64061;SDS011;50308;47.438;-1.528;2023-12-29T03:39:19;6.15;;;1.90;;
64061;SDS011;50308;47.438;-1.528;2023-12-29T03:41:44;11.60;;;2.47;;
64061;SDS011;50308;47.438;-1.528;2023-12-29T03:44:10;7.07;;;1.75;;
64061;SDS011;50308;47.438;-1.528;2023-12-29T03:46:36;5.40;;;1.48;;
64061;SDS011;50308;47.438;-1.528;2023-12-29T03:49:02;5.32;;;1.40;;
64061;SDS011;50308;47.438;-1.528;2023-12-29T03:51:28;6.47;;;1.60;;
64061;SDS011;50308;47.438;-1.528;2023-12-29T03:53:54;7.45;;;1.98;;
64061;SDS011;50308;47.438;-1.528;2023-12-29T03:56:19;7.25;;;1.60;;
64061;SDS011;50308;47.438;-1.528;2023-12-29T03:58:46;3.75;;;1.48;;
64061;SDS011;50308;47.438;-1.528;2023-12-29T04:01:12;9.68;;;1.52;;
64061;SDS011;50308;47.438;-1.528;2023-12-29T04:03:39;6.22;;;1.40;;
64061;SDS011;50308;47.438;-1.528;2023-12-29T04:06:06;6.90;;;2.00;;
64061;SDS011;50308;47.438;-1.528;2023-12-29T04:08:35;4.25;;;1.20;;
64061;SDS011;50308;47.438;-1.528;2023-12-29T04:11:02;7.82;;;1.52;;
64061;SDS011;50308;47.438;-1.528;2023-12-29T04:13:28;7.10;;;1.20;;
64061;SDS011;50308;47.438;-1.528;2023-12-29T04:15:54;6.15;;;1.65;;
64061;SDS011;50308;47.438;-1.528;2023-12-29T04:18:20;5.15;;;1.45;;
64061;SDS011;50308;47.438;-1.528;2023-12-29T04:20:47;9.43;;;1.40;;
64061;SDS011;50308;47.438;-1.528;2023-12-29T04:23:12;11.13;;;1.80;;
64061;SDS011;50308;47.438;-1.528;2023-12-29T04:25:38;3.60;;;1.25;;
64061;SDS011;50308;47.438;-1.528;2023-12-29T04:28:04;4.35;;;1.65;;
64061;SDS011;50308;47.438;-1.528;2023-12-29T04:30:30;7.28;;;2.03;;
64061;SDS011;50308;47.438;-1.528;2023-12-29T04:32:56;4.30;;;1.58;;
64061;SDS011;50308;47.438;-1.528;2023-12-29T04:35:21;7.78;;;1.60;;
64061;SDS011;50308;47.438;-1.528;2023-12-29T04:37:47;5.45;;;1.30;;
64061;SDS011;50308;47.438;-1.528;2023-12-29T04:40:14;6.18;;;1.33;;
64061;SDS011;50308;47.438;-1.528;2023-12-29T04:42:40;8.35;;;1.35;;
64061;SDS011;50308;47.438;-1.528;2023-12-29T04:45:05;5.68;;;1.45;;
64061;SDS011;50308;47.438;-1.528;2023-12-29T04:47:32;6.93;;;1.30;;
64061;SDS011;50308;47.438;-1.528;2023-12-29T04:49:57;5.82;;;1.30;;
64061;SDS011;50308;47.438;-1.528;2023-12-29T04:52:23;4.28;;;1.25;;
64061;SDS011;50308;47.438;-1.528;2023-12-29T04:54:49;6.38;;;1.17;;
64061;SDS011;50308;47.438;-1.528;2023-12-29T04:57:15;6.50;;;1.30;;
64061;SDS011;50308;47.438;-1.528;2023-12-29T04:59:40;6.53;;;2.10;;
64061;SDS011;50308;47.438;-1.528;2023-12-29T05:02:06;6.28;;;1.10;;
64061;SDS011;50308;47.438;-1.528;2023-12-29T05:04:32;6.20;;;1.30;;
64061;SDS011;50308;47.438;-1.528;2023-12-29T05:06:57;7.30;;;1.98;;
64061;SDS011;50308;47.438;-1.528;2023-12-29T05:09:23;7.35;;;1.33;;
64061;SDS011;50308;47.438;-1.528;2023-12-29T05:11:49;9.18;;;1.40;;
64061;SDS011;50308;47.438;-1.528;2023-12-29T05:14:14;5.07;;;1.13;;
64061;SDS011;50308;47.438;-1.528;2023-12-29T05:16:41;8.25;;;1.40;;
64061;SDS011;50308;47.438;-1.528;2023-12-29T05:19:07;4.82;;;1.30;;
64061;SDS011;50308;47.438;-1.528;2023-12-29T05:21:32;5.75;;;1.65;;
64061;SDS011;50308;47.438;-1.528;2023-12-29T05:23:58;4.93;;;1.40;;
64061;SDS011;50308;47.438;-1.528;2023-12-29T05:26:24;7.00;;;1.58;;
64061;SDS011;50308;47.438;-1.528;2023-12-29T05:28:50;4.70;;;1.00;;
64061;SDS011;50308;47.438;-1.528;2023-12-29T05:31:16;6.32;;;1.25;;
64061;SDS011;50308;47.438;-1.528;2023-12-29T05:33:42;4.28;;;1.30;;
64061;SDS011;50308;47.438;-1.528;2023-12-29T05:36:09;7.07;;;1.20;;
64061;SDS011;50308;47.438;-1.528;2023-12-29T05:38:36;6.10;;;1.38;;
64061;SDS011;50308;47.438;-1.528;2023-12-29T05:41:02;5.43;;;1.50;;
64061;SDS011;50308;47.438;-1.528;2023-12-29T05:43:30;5.72;;;1.25;;
64061;SDS011;50308;47.438;-1.528;2023-12-29T05:45:57;5.63;;;1.25;;
64061;SDS011;50308;47.438;-1.528;2023-12-29T05:48:23;5.47;;;1.27;;
64061;SDS011;50308;47.438;-1.528;2023-12-29T05:50:49;8.48;;;1.23;;
64061;SDS011;50308;47.438;-1.528;2023-12-29T05:53:15;6.88;;;1.30;;
64061;SDS011;50308;47.438;-1.528;2023-12-29T05:55:41;3.22;;;1.10;;
64061;SDS011;50308;47.438;-1.528;2023-12-29T05:58:08;4.05;;;1.00;;
64061;SDS011;50308;47.438;-1.528;2023-12-29T06:00:33;4.30;;;1.00;;
64061;SDS011;50308;47.438;-1.528;2023-12-29T06:02:59;6.22;;;1.10;;
64061;SDS011;50308;47.438;-1.528;2023-12-29T06:05:24;6.43;;;1.00;;
64061;SDS011;50308;47.438;-1.528;2023-12-29T06:07:50;6.72;;;2.38;;
64061;SDS011;50308;47.438;-1.528;2023-12-29T06:10:16;10.40;;;3.90;;
64061;SDS011;50308;47.438;-1.528;2023-12-29T06:12:41;20.08;;;8.57;;
64061;SDS011;50308;47.438;-1.528;2023-12-29T06:15:07;20.45;;;7.88;;
64061;SDS011;50308;47.438;-1.528;2023-12-29T06:17:33;33.03;;;15.05;;
64061;SDS011;50308;47.438;-1.528;2023-12-29T06:20:00;36.38;;;16.60;;
64061;SDS011;50308;47.438;-1.528;2023-12-29T06:22:27;51.47;;;20.52;;
64061;SDS011;50308;47.438;-1.528;2023-12-29T06:24:53;33.75;;;13.95;;
64061;SDS011;50308;47.438;-1.528;2023-12-29T06:27:18;56.08;;;21.13;;
64061;SDS011;50308;47.438;-1.528;2023-12-29T06:29:44;109.03;;;39.90;;
64061;SDS011;50308;47.438;-1.528;2023-12-29T06:32:10;136.48;;;48.17;;
64061;SDS011;50308;47.438;-1.528;2023-12-29T06:34:35;94.47;;;36.85;;
64061;SDS011;50308;47.438;-1.528;2023-12-29T06:37:01;82.63;;;31.00;;
64061;SDS011;50308;47.438;-1.528;2023-12-29T06:39:27;66.68;;;31.48;;
64061;SDS011;50308;47.438;-1.528;2023-12-29T06:41:52;64.32;;;27.45;;
64061;SDS011;50308;47.438;-1.528;2023-12-29T06:44:18;54.70;;;26.50;;
64061;SDS011;50308;47.438;-1.528;2023-12-29T06:46:43;48.17;;;26.13;;
64061;SDS011;50308;47.438;-1.528;2023-12-29T06:49:09;43.50;;;22.45;;
64061;SDS011;50308;47.438;-1.528;2023-12-29T06:51:35;42.45;;;23.30;;
64061;SDS011;50308;47.438;-1.528;2023-12-29T06:54:01;39.65;;;19.65;;
64061;SDS011;50308;47.438;-1.528;2023-12-29T06:56:26;37.60;;;17.92;;
64061;SDS011;50308;47.438;-1.528;2023-12-29T06:58:52;27.42;;;13.15;;
64061;SDS011;50308;47.438;-1.528;2023-12-29T07:01:18;27.00;;;12.55;;
64061;SDS011;50308;47.438;-1.528;2023-12-29T07:03:44;23.45;;;10.55;;
64061;SDS011;50308;47.438;-1.528;2023-12-29T07:06:10;23.83;;;11.15;;
64061;SDS011;50308;47.438;-1.528;2023-12-29T07:08:35;22.52;;;9.77;;
64061;SDS011;50308;47.438;-1.528;2023-12-29T07:11:01;20.65;;;8.38;;
64061;SDS011;50308;47.438;-1.528;2023-12-29T07:13:27;20.50;;;11.25;;
64061;SDS011;50308;47.438;-1.528;2023-12-29T07:15:53;15.85;;;9.35;;
64061;SDS011;50308;47.438;-1.528;2023-12-29T07:18:19;18.73;;;10.00;;
64061;SDS011;50308;47.438;-1.528;2023-12-29T07:20:45;19.80;;;9.23;;
64061;SDS011;50308;47.438;-1.528;2023-12-29T07:23:10;14.80;;;8.95;;
64061;SDS011;50308;47.438;-1.528;2023-12-29T07:25:36;19.23;;;9.75;;
64061;SDS011;50308;47.438;-1.528;2023-12-29T07:28:01;16.70;;;9.18;;
64061;SDS011;50308;47.438;-1.528;2023-12-29T07:30:27;14.18;;;8.13;;
64061;SDS011;50308;47.438;-1.528;2023-12-29T07:32:53;16.17;;;8.15;;
64061;SDS011;50308;47.438;-1.528;2023-12-29T07:35:18;16.85;;;8.60;;
64061;SDS011;50308;47.438;-1.528;2023-12-29T07:37:44;17.35;;;7.93;;
64061;SDS011;50308;47.438;-1.528;2023-12-29T07:40:11;18.58;;;8.13;;
64061;SDS011;50308;47.438;-1.528;2023-12-29T07:42:38;16.65;;;7.72;;
64061;SDS011;50308;47.438;-1.528;2023-12-29T07:45:04;11.98;;;6.20;;
64061;SDS011;50308;47.438;-1.528;2023-12-29T07:47:31;19.25;;;6.95;;
64061;SDS011;50308;47.438;-1.528;2023-12-29T07:49:56;12.07;;;5.28;;
64061;SDS011;50308;47.438;-1.528;2023-12-29T07:52:22;9.35;;;4.32;;
64061;SDS011;50308;47.438;-1.528;2023-12-29T07:54:48;9.02;;;3.80;;
64061;SDS011;50308;47.438;-1.528;2023-12-29T07:57:14;12.55;;;3.80;;
64061;SDS011;50308;47.438;-1.528;2023-12-29T07:59:40;10.18;;;3.08;;
64061;SDS011;50308;47.438;-1.528;2023-12-29T08:02:05;13.88;;;4.10;;
64061;SDS011;50308;47.438;-1.528;2023-12-29T08:04:31;11.90;;;5.00;;
64061;SDS011;50308;47.438;-1.528;2023-12-29T08:06:57;10.73;;;4.05;;
64061;SDS011;50308;47.438;-1.528;2023-12-29T08:09:23;11.50;;;4.25;;
64061;SDS011;50308;47.438;-1.528;2023-12-29T08:11:49;10.30;;;4.40;;
64061;SDS011;50308;47.438;-1.528;2023-12-29T08:14:15;10.23;;;6.43;;
64061;SDS011;50308;47.438;-1.528;2023-12-29T08:16:41;21.25;;;12.45;;
64061;SDS011;50308;47.438;-1.528;2023-12-29T08:19:07;14.20;;;9.23;;
64061;SDS011;50308;47.438;-1.528;2023-12-29T08:21:33;35.92;;;16.40;;
64061;SDS011;50308;47.438;-1.528;2023-12-29T08:23:59;20.52;;;9.05;;
64061;SDS011;50308;47.438;-1.528;2023-12-29T08:26:24;19.98;;;12.18;;
64061;SDS011;50308;47.438;-1.528;2023-12-29T08:28:51;27.75;;;16.27;;
64061;SDS011;50308;47.438;-1.528;2023-12-29T08:31:17;23.05;;;11.75;;
64061;SDS011;50308;47.438;-1.528;2023-12-29T08:33:43;25.88;;;17.63;;
64061;SDS011;50308;47.438;-1.528;2023-12-29T08:36:11;19.02;;;11.05;;
64061;SDS011;50308;47.438;-1.528;2023-12-29T08:38:37;23.90;;;13.15;;
64061;SDS011;50308;47.438;-1.528;2023-12-29T08:41:03;22.25;;;13.52;;
64061;SDS011;50308;47.438;-1.528;2023-12-29T08:43:29;20.70;;;14.80;;
64061;SDS011;50308;47.438;-1.528;2023-12-29T08:45:55;15.10;;;8.52;;
64061;SDS011;50308;47.438;-1.528;2023-12-29T08:48:22;16.88;;;9.88;;
64061;SDS011;50308;47.438;-1.528;2023-12-29T08:50:48;16.10;;;8.40;;
64061;SDS011;50308;47.438;-1.528;2023-12-29T08:53:14;13.02;;;8.13;;
64061;SDS011;50308;47.438;-1.528;2023-12-29T08:55:43;13.73;;;5.55;;
64061;SDS011;50308;47.438;-1.528;2023-12-29T08:58:09;10.55;;;5.93;;
64061;SDS011;50308;47.438;-1.528;2023-12-29T09:00:34;8.20;;;6.05;;
64061;SDS011;50308;47.438;-1.528;2023-12-29T09:03:00;9.65;;;6.53;;
64061;SDS011;50308;47.438;-1.528;2023-12-29T09:05:26;9.25;;;5.18;;
64061;SDS011;50308;47.438;-1.528;2023-12-29T09:07:51;11.38;;;7.32;;
64061;SDS011;50308;47.438;-1.528;2023-12-29T09:10:17;14.13;;;5.30;;
64061;SDS011;50308;47.438;-1.528;2023-12-29T09:12:43;11.07;;;5.75;;
64061;SDS011;50308;47.438;-1.528;2023-12-29T09:15:09;10.93;;;4.88;;
64061;SDS011;50308;47.438;-1.528;2023-12-29T09:17:34;9.18;;;4.80;;
64061;SDS011;50308;47.438;-1.528;2023-12-29T09:20:00;12.05;;;7.88;;
64061;SDS011;50308;47.438;-1.528;2023-12-29T09:22:27;11.48;;;6.95;;
64061;SDS011;50308;47.438;-1.528;2023-12-29T09:24:53;11.93;;;6.43;;
64061;SDS011;50308;47.438;-1.528;2023-12-29T09:27:20;10.02;;;5.60;;
64061;SDS011;50308;47.438;-1.528;2023-12-29T09:29:46;15.15;;;8.25;;
64061;SDS011;50308;47.438;-1.528;2023-12-29T09:32:12;12.05;;;6.20;;
64061;SDS011;50308;47.438;-1.528;2023-12-29T09:34:38;12.52;;;7.50;;
64061;SDS011;50308;47.438;-1.528;2023-12-29T09:37:03;16.52;;;8.80;;
64061;SDS011;50308;47.438;-1.528;2023-12-29T09:39:29;15.40;;;7.57;;
64061;SDS011;50308;47.438;-1.528;2023-12-29T09:41:57;11.40;;;5.68;;
64061;SDS011;50308;47.438;-1.528;2023-12-29T09:44:27;14.68;;;5.30;;
64061;SDS011;50308;47.438;-1.528;2023-12-29T09:46:55;9.70;;;4.80;;
64061;SDS011;50308;47.438;-1.528;2023-12-29T09:49:26;9.77;;;4.13;;
64061;SDS011;50308;47.438;-1.528;2023-12-29T09:51:55;8.13;;;3.50;;
64061;SDS011;50308;47.438;-1.528;2023-12-29T09:54:22;11.05;;;3.80;;
64061;SDS011;50308;47.438;-1.528;2023-12-29T09:56:49;14.52;;;3.67;;
64061;SDS011;50308;47.438;-1.528;2023-12-29T09:59:15;11.63;;;3.15;;
64061;SDS011;50308;47.438;-1.528;2023-12-29T10:01:42;9.52;;;2.95;;
64061;SDS011;50308;47.438;-1.528;2023-12-29T10:04:11;11.70;;;2.85;;
64061;SDS011;50308;47.438;-1.528;2023-12-29T10:06:38;9.82;;;4.68;;
64061;SDS011;50308;47.438;-1.528;2023-12-29T10:09:10;9.10;;;3.38;;
64061;SDS011;50308;47.438;-1.528;2023-12-29T10:11:38;7.50;;;3.28;;
64061;SDS011;50308;47.438;-1.528;2023-12-29T10:20:22;11.77;;;4.00;;
64061;SDS011;50308;47.438;-1.528;2023-12-29T10:23:10;7.78;;;4.63;;
64061;SDS011;50308;47.438;-1.528;2023-12-29T10:25:38;9.00;;;5.18;;
64061;SDS011;50308;47.438;-1.528;2023-12-29T10:28:05;8.45;;;5.28;;
64061;SDS011;50308;47.438;-1.528;2023-12-29T10:30:31;16.10;;;7.22;;
64061;SDS011;50308;47.438;-1.528;2023-12-29T10:32:57;12.13;;;5.30;;
64061;SDS011;50308;47.438;-1.528;2023-12-29T10:35:25;12.70;;;5.35;;
64061;SDS011;50308;47.438;-1.528;2023-12-29T10:37:51;12.30;;;5.32;;
64061;SDS011;50308;47.438;-1.528;2023-12-29T10:40:20;14.18;;;4.80;;
64061;SDS011;50308;47.438;-1.528;2023-12-29T10:42:53;11.15;;;4.38;;
64061;SDS011;50308;47.438;-1.528;2023-12-29T10:45:19;11.25;;;4.35;;
64061;SDS011;50308;47.438;-1.528;2023-12-29T10:47:45;8.90;;;4.05;;
64061;SDS011;50308;47.438;-1.528;2023-12-29T10:50:12;8.68;;;3.28;;
64061;SDS011;50308;47.438;-1.528;2023-12-29T10:52:38;10.02;;;3.00;;
64061;SDS011;50308;47.438;-1.528;2023-12-29T10:57:32;7.93;;;2.40;;
64061;SDS011;50308;47.438;-1.528;2023-12-29T10:59:58;10.23;;;2.45;;
64061;SDS011;50308;47.438;-1.528;2023-12-29T11:02:27;8.50;;;2.20;;
64061;SDS011;50308;47.438;-1.528;2023-12-29T11:10:02;9.82;;;3.40;;
64061;SDS011;50308;47.438;-1.528;2023-12-29T11:12:33;15.82;;;6.53;;
64061;SDS011;50308;47.438;-1.528;2023-12-29T11:15:06;20.02;;;10.05;;
64061;SDS011;50308;47.438;-1.528;2023-12-29T11:17:33;18.80;;;7.10;;
64061;SDS011;50308;47.438;-1.528;2023-12-29T11:20:00;16.70;;;6.32;;
64061;SDS011;50308;47.438;-1.528;2023-12-29T11:22:31;13.27;;;6.82;;
64061;SDS011;50308;47.438;-1.528;2023-12-29T11:24:57;12.63;;;7.25;;
64061;SDS011;50308;47.438;-1.528;2023-12-29T11:27:25;15.07;;;10.07;;
64061;SDS011;50308;47.438;-1.528;2023-12-29T11:29:54;9.90;;;7.10;;
64061;SDS011;50308;47.438;-1.528;2023-12-29T11:32:23;12.60;;;6.40;;
64061;SDS011;50308;47.438;-1.528;2023-12-29T11:35:18;10.98;;;5.63;;
64061;SDS011;50308;47.438;-1.528;2023-12-29T11:37:59;11.73;;;5.77;;
64061;SDS011;50308;47.438;-1.528;2023-12-29T11:40:47;10.43;;;4.95;;
64061;SDS011;50308;47.438;-1.528;2023-12-29T11:43:17;12.75;;;4.72;;
64061;SDS011;50308;47.438;-1.528;2023-12-29T11:45:44;8.43;;;4.25;;
64061;SDS011;50308;47.438;-1.528;2023-12-29T11:48:10;12.43;;;6.53;;
64061;SDS011;50308;47.438;-1.528;2023-12-29T11:50:37;11.68;;;5.68;;
64061;SDS011;50308;47.438;-1.528;2023-12-29T11:53:05;8.70;;;4.90;;
64061;SDS011;50308;47.438;-1.528;2023-12-29T11:55:36;8.57;;;5.10;;
64061;SDS011;50308;47.438;-1.528;2023-12-29T11:58:03;11.43;;;5.35;;
64061;SDS011;50308;47.438;-1.528;2023-12-29T12:03:24;10.85;;;4.85;;
64061;SDS011;50308;47.438;-1.528;2023-12-29T12:05:52;11.23;;;4.95;;
64061;SDS011;50308;47.438;-1.528;2023-12-29T12:08:32;9.10;;;4.70;;
64061;SDS011;50308;47.438;-1.528;2023-12-29T12:13:54;10.02;;;4.38;;
64061;SDS011;50308;47.438;-1.528;2023-12-29T12:19:15;16.58;;;6.07;;
64061;SDS011;50308;47.438;-1.528;2023-12-29T12:21:42;8.95;;;4.35;;
64061;SDS011;50308;47.438;-1.528;2023-12-29T12:24:14;14.23;;;5.75;;
64061;SDS011;50308;47.438;-1.528;2023-12-29T12:26:40;13.93;;;6.47;;
64061;SDS011;50308;47.438;-1.528;2023-12-29T12:29:06;14.57;;;6.25;;
64061;SDS011;50308;47.438;-1.528;2023-12-29T12:31:32;10.55;;;5.35;;
64061;SDS011;50308;47.438;-1.528;2023-12-29T12:33:58;12.95;;;6.05;;
64061;SDS011;50308;47.438;-1.528;2023-12-29T12:36:27;13.35;;;7.10;;
64061;SDS011;50308;47.438;-1.528;2023-12-29T12:38:53;14.73;;;6.88;;
64061;SDS011;50308;47.438;-1.528;2023-12-29T12:41:20;13.15;;;5.85;;
64061;SDS011;50308;47.438;-1.528;2023-12-29T12:46:33;12.77;;;5.90;;
64061;SDS011;50308;47.438;-1.528;2023-12-29T12:49:01;12.85;;;6.15;;
64061;SDS011;50308;47.438;-1.528;2023-12-29T12:51:28;13.32;;;6.10;;
64061;SDS011;50308;47.438;-1.528;2023-12-29T12:53:55;11.82;;;5.70;;
64061;SDS011;50308;47.438;-1.528;2023-12-29T12:56:20;16.60;;;5.93;;
64061;SDS011;50308;47.438;-1.528;2023-12-29T12:58:46;13.15;;;6.15;;
64061;SDS011;50308;47.438;-1.528;2023-12-29T13:01:12;13.30;;;6.53;;
64061;SDS011;50308;47.438;-1.528;2023-12-29T13:03:38;15.75;;;6.22;;
64061;SDS011;50308;47.438;-1.528;2023-12-29T13:06:05;10.02;;;5.28;;
64061;SDS011;50308;47.438;-1.528;2023-12-29T13:08:32;9.52;;;5.40;;
64061;SDS011;50308;47.438;-1.528;2023-12-29T13:10:58;13.65;;;6.07;;
64061;SDS011;50308;47.438;-1.528;2023-12-29T13:13:35;14.13;;;6.45;;
64061;SDS011;50308;47.438;-1.528;2023-12-29T13:16:04;14.73;;;5.50;;
64061;SDS011;50308;47.438;-1.528;2023-12-29T13:18:30;13.75;;;6.68;;
64061;SDS011;50308;47.438;-1.528;2023-12-29T13:20:56;13.50;;;5.72;;
64061;SDS011;50308;47.438;-1.528;2023-12-29T13:23:26;11.23;;;5.32;;
64061;SDS011;50308;47.438;-1.528;2023-12-29T13:25:53;10.63;;;5.45;;
64061;SDS011;50308;47.438;-1.528;2023-12-29T13:28:21;15.15;;;6.15;;
64061;SDS011;50308;47.438;-1.528;2023-12-29T13:30:47;13.68;;;5.82;;
64061;SDS011;50308;47.438;-1.528;2023-12-29T13:33:16;15.48;;;7.88;;
64061;SDS011;50308;47.438;-1.528;2023-12-29T13:36:12;13.90;;;7.72;;
64061;SDS011;50308;47.438;-1.528;2023-12-29T13:38:49;16.52;;;8.40;;
64061;SDS011;50308;47.438;-1.528;2023-12-29T13:41:22;17.17;;;8.15;;
64061;SDS011;50308;47.438;-1.528;2023-12-29T13:43:50;22.08;;;8.15;;
64061;SDS011;50308;47.438;-1.528;2023-12-29T13:46:17;15.35;;;6.40;;
64061;SDS011;50308;47.438;-1.528;2023-12-29T13:48:43;16.63;;;6.70;;
64061;SDS011;50308;47.438;-1.528;2023-12-29T13:51:10;13.35;;;5.70;;
64061;SDS011;50308;47.438;-1.528;2023-12-29T13:53:36;9.93;;;5.30;;
64061;SDS011;50308;47.438;-1.528;2023-12-29T13:56:06;9.55;;;4.07;;
64061;SDS011;50308;47.438;-1.528;2023-12-29T13:58:35;9.15;;;3.83;;
64061;SDS011;50308;47.438;-1.528;2023-12-29T14:01:03;8.77;;;3.80;;
64061;SDS011;50308;47.438;-1.528;2023-12-29T14:03:46;12.88;;;5.93;;
64061;SDS011;50308;47.438;-1.528;2023-12-29T14:06:28;17.15;;;6.65;;
64061;SDS011;50308;47.438;-1.528;2023-12-29T14:08:57;13.15;;;4.47;;
64061;SDS011;50308;47.438;-1.528;2023-12-29T14:11:23;7.30;;;2.60;;
64061;SDS011;50308;47.438;-1.528;2023-12-29T14:13:48;9.65;;;2.55;;
64061;SDS011;50308;47.438;-1.528;2023-12-29T14:16:14;10.75;;;2.65;;
64061;SDS011;50308;47.438;-1.528;2023-12-29T14:24:08;8.90;;;2.47;;
64061;SDS011;50308;47.438;-1.528;2023-12-29T14:26:38;14.45;;;3.05;;
64061;SDS011;50308;47.438;-1.528;2023-12-29T14:29:07;8.70;;;1.83;;
64061;SDS011;50308;47.438;-1.528;2023-12-29T14:31:37;11.20;;;2.03;;
64061;SDS011;50308;47.438;-1.528;2023-12-29T14:34:04;8.02;;;1.83;;
64061;SDS011;50308;47.438;-1.528;2023-12-29T14:36:34;8.68;;;1.95;;
64061;SDS011;50308;47.438;-1.528;2023-12-29T14:39:01;13.53;;;2.60;;
64061;SDS011;50308;47.438;-1.528;2023-12-29T14:41:28;10.10;;;2.17;;
64061;SDS011;50308;47.438;-1.528;2023-12-29T14:43:54;5.78;;;1.90;;
64061;SDS011;50308;47.438;-1.528;2023-12-29T14:46:20;8.05;;;2.17;;
64061;SDS011;50308;47.438;-1.528;2023-12-29T14:48:46;29.88;;;12.15;;
64061;SDS011;50308;47.438;-1.528;2023-12-29T14:51:12;85.68;;;31.08;;
64061;SDS011;50308;47.438;-1.528;2023-12-29T14:53:38;53.13;;;17.40;;
64061;SDS011;50308;47.438;-1.528;2023-12-29T14:56:04;63.42;;;25.98;;
64061;SDS011;50308;47.438;-1.528;2023-12-29T14:58:30;63.83;;;24.05;;